Time;durP1;ratioP1;P1;durP2;ratioP2;P2;SDS_P1;SDS_P2;PMS_P1;PMS_P2;Temp;Humidity;BMP_temperature;BMP_pressure;BME280_temperature;BME280_humidity;BME280_pressure;Samples;Min_cycle;Max_cycle;Signal;HPM_P1;HPM_P2
2022/11/23 00:00:05;;;;;;;0.00;0.00;;;;;;;7.08;100.00;99396.84;5228287;28;20100;-77
2022/11/23 00:02:36;;;;;;;0.00;0.00;;;;;;;7.11;100.00;99396.56;5233609;28;20025;-77
2022/11/23 00:05:07;;;;;;;0.00;0.00;;;;;;;7.09;100.00;99390.56;5229974;28;20467;-76
2022/11/23 00:07:39;;;;;;;0.00;0.00;;;;;;;7.09;100.00;99397.69;5230323;28;20893;-77
2022/11/23 00:10:10;;;;;;;0.00;0.00;;;;;;;7.09;100.00;99395.88;5228639;28;20041;-77
2022/11/23 00:12:42;;;;;;;0.00;0.00;;;;;;;7.09;100.00;99403.81;5230880;28;20044;-77
2022/11/23 00:15:14;;;;;;;0.00;0.00;;;;;;;7.09;100.00;99416.25;5227670;28;20041;-77
2022/11/23 00:17:47;;;;;;;0.00;0.00;;;;;;;7.07;100.00;99401.28;5230590;28;20036;-77
2022/11/23 00:20:18;;;;;;;0.10;0.00;;;;;;;7.07;100.00;99405.78;5229075;28;20442;-77
2022/11/23 00:22:50;;;;;;;0.00;0.00;;;;;;;7.07;100.00;99401.28;5228714;28;20037;-77
2022/11/23 00:25:21;;;;;;;0.00;0.00;;;;;;;7.07;100.00;99411.91;5233969;28;20091;-77
2022/11/23 00:27:52;;;;;;;0.00;0.00;;;;;;;7.10;100.00;99410.00;5227927;28;20108;-78
2022/11/23 00:30:23;;;;;;;0.00;0.00;;;;;;;7.10;100.00;99408.19;5229505;28;20055;-77
2022/11/23 00:32:55;;;;;;;0.00;0.00;;;;;;;7.11;100.00;99417.78;5230854;28;20048;-77
2022/11/23 00:35:26;;;;;;;0.00;0.00;;;;;;;7.11;100.00;99415.13;5227267;28;20176;-76
2022/11/23 00:37:57;;;;;;;0.00;0.00;;;;;;;7.09;100.00;99417.09;5229865;28;20610;-77
2022/11/23 00:40:29;;;;;;;0.00;0.00;;;;;;;7.10;100.00;99420.59;5249039;28;20503;-78
2022/11/23 00:43:00;;;;;;;0.00;0.00;;;;;;;7.11;100.00;99417.78;5227242;28;20029;-78
2022/11/23 00:45:31;;;;;;;0.00;0.00;;;;;;;7.12;100.00;99419.50;5234385;28;20025;-78
2022/11/23 00:48:03;;;;;;;0.00;0.00;;;;;;;7.12;100.00;99422.16;5227876;28;20124;-79
2022/11/23 00:50:34;;;;;;;0.00;0.00;;;;;;;7.12;100.00;99419.50;5227208;28;20033;-79
2022/11/23 00:53:05;;;;;;;0.00;0.00;;;;;;;7.11;100.00;99423.09;5228681;28;20172;-79
2022/11/23 00:55:37;;;;;;;0.00;0.00;;;;;;;7.11;100.00;99417.78;5234216;28;20072;-77
2022/11/23 00:58:08;;;;;;;0.00;0.00;;;;;;;7.12;100.00;99419.50;5242707;28;20553;-76
2022/11/23 01:00:39;;;;;;;0.00;0.00;;;;;;;7.13;100.00;99420.31;5232052;28;20631;-78
2022/11/23 01:03:10;;;;;;;0.00;0.00;;;;;;;7.11;100.00;99427.56;5228808;28;20763;-78
2022/11/23 01:05:42;;;;;;;0.00;0.00;;;;;;;7.09;100.00;99429.50;5229052;28;21903;-77
2022/11/23 01:08:13;;;;;;;0.00;0.00;;;;;;;7.07;100.00;99427.81;5228432;28;20109;-77
2022/11/23 01:10:44;;;;;;;0.00;0.00;;;;;;;7.08;100.00;99428.69;5230099;28;20029;-77
2022/11/23 01:13:15;;;;;;;0.00;0.00;;;;;;;7.07;100.00;99432.28;5230142;28;20088;-78
2022/11/23 01:15:50;;;;;;;0.00;0.00;;;;;;;7.06;100.00;99431.47;5228475;28;20037;-80
2022/11/23 01:18:22;;;;;;;0.00;0.00;;;;;;;7.07;100.00;99432.28;5228288;28;20032;-78
2022/11/23 01:20:54;;;;;;;0.00;0.00;;;;;;;7.06;100.00;99435.94;5230243;28;20033;-77
2022/11/23 01:23:28;;;;;;;0.15;0.00;;;;;;;7.05;100.00;99429.75;5228367;28;20740;-78
2022/11/23 01:26:04;;;;;;;0.00;0.00;;;;;;;7.05;100.00;99443.03;5228596;28;20064;-78
2022/11/23 01:28:38;;;;;;;0.00;0.00;;;;;;;7.05;100.00;99448.31;5229407;28;20048;-78
2022/11/23 01:31:14;;;;;;;0.00;0.00;;;;;;;7.04;100.00;99443.19;5227553;28;20029;-78
2022/11/23 01:33:46;;;;;;;0.00;0.00;;;;;;;7.03;100.00;99430.88;5228075;28;20475;-78
2022/11/23 01:36:20;;;;;;;0.00;0.00;;;;;;;7.03;100.00;99452.09;5229061;28;20017;-78
2022/11/23 01:38:51;;;;;;;0.00;0.00;;;;;;;7.03;100.00;99454.75;5229159;28;20464;-77
2022/11/23 01:41:29;;;;;;;0.00;0.00;;;;;;;7.03;100.00;99457.38;5224411;28;20145;-78
2022/11/23 01:44:19;;;;;;;0.00;0.00;;;;;;;7.04;100.00;99456.44;5229736;28;20025;-78
2022/11/23 01:46:51;;;;;;;0.00;0.00;;;;;;;7.06;100.00;99451.84;5229622;28;20087;-78
2022/11/23 01:49:22;;;;;;;0.00;0.00;;;;;;;7.07;100.00;99464.94;5227755;28;20037;-78
2022/11/23 01:51:58;;;;;;;0.00;0.00;;;;;;;7.06;100.00;99462.44;5228243;28;20025;-78
2022/11/23 01:54:35;;;;;;;0.00;0.00;;;;;;;7.09;100.00;99461.34;5227910;28;20080;-77
2022/11/23 01:57:11;;;;;;;0.00;0.00;;;;;;;7.09;100.00;99464.81;5229198;28;20045;-78
2022/11/23 01:59:44;;;;;;;0.00;0.00;;;;;;;7.09;100.00;99456.03;5227068;28;20029;-79
2022/11/23 02:02:16;;;;;;;0.00;0.00;;;;;;;7.09;100.00;99459.53;5229151;28;20041;-78
2022/11/23 02:04:51;;;;;;;0.00;0.00;;;;;;;7.10;100.00;99461.22;5228468;28;20030;-78
2022/11/23 02:07:23;;;;;;;;;;;;;;;7.11;100.00;99468.19;5229119;28;20040;-77
2022/11/23 02:09:54;;;;;;;0.00;0.00;;;;;;;7.13;100.00;99474.19;5226147;28;19917;-78
2022/11/23 02:12:25;;;;;;;0.10;0.00;;;;;;;7.15;100.00;99466.13;5227805;28;20119;-78
2022/11/23 02:14:57;;;;;;;0.65;0.00;;;;;;;7.15;100.00;99466.13;5227046;28;20048;-78
2022/11/23 02:17:28;;;;;;;0.00;0.00;;;;;;;7.15;100.00;99468.78;5227513;28;20609;-78
2022/11/23 02:20:07;;;;;;;0.00;0.00;;;;;;;7.17;100.00;99472.13;5226984;28;20037;-78
2022/11/23 02:22:49;;;;;;;0.00;0.00;;;;;;;7.17;100.00;99464.19;5224911;28;20029;-78
2022/11/23 02:25:33;;;;;;;0.00;0.00;;;;;;;7.17;100.00;99474.78;5228862;28;20391;-78
2022/11/23 02:28:05;;;;;;;0.00;0.00;;;;;;;7.17;100.00;99478.31;5225214;28;20535;-78
2022/11/23 02:30:38;;;;;;;0.00;0.00;;;;;;;7.17;100.00;99470.34;5229617;28;20039;-78
2022/11/23 02:33:09;;;;;;;0.00;0.00;;;;;;;7.17;100.00;99475.66;5227152;28;20108;-78
2022/11/23 02:35:49;;;;;;;0.00;0.00;;;;;;;7.17;100.00;99483.59;5228223;28;20026;-78
2022/11/23 02:38:24;;;;;;;0.00;0.00;;;;;;;7.17;100.00;99483.59;5226270;28;20119;-78
2022/11/23 02:40:55;;;;;;;0.00;0.00;;;;;;;7.18;100.00;99471.19;5227023;28;20399;-78
2022/11/23 02:43:27;;;;;;;0.22;0.00;;;;;;;7.18;100.00;99476.47;5228931;28;20029;-77
2022/11/23 02:46:02;;;;;;;0.00;0.00;;;;;;;7.18;100.00;99482.63;5231667;28;20017;-78
2022/11/23 02:48:34;;;;;;;0.00;0.00;;;;;;;7.18;100.00;99479.13;5228640;28;20038;-78
2022/11/23 02:51:05;;;;;;;0.00;0.00;;;;;;;7.17;100.00;99475.66;5232294;28;20344;-79
2022/11/23 02:53:37;;;;;;;0.00;0.00;;;;;;;7.18;100.00;99493.22;5227496;28;20049;-78
2022/11/23 02:56:08;;;;;;;0.00;0.00;;;;;;;7.18;100.00;99482.63;5230841;28;20033;-78
2022/11/23 02:58:39;;;;;;;0.00;0.00;;;;;;;7.18;100.00;99479.97;5229671;28;20470;-78
2022/11/23 03:01:10;;;;;;;0.35;0.00;;;;;;;7.18;100.00;99476.47;5228246;28;20515;-78
2022/11/23 03:03:42;;;;;;;0.00;0.00;;;;;;;7.18;100.00;99482.63;5230757;28;20044;-78
2022/11/23 03:06:13;;;;;;;0.00;0.00;;;;;;;7.18;100.00;99485.28;5231975;28;20128;-78
2022/11/23 03:08:44;;;;;;;0.00;0.00;;;;;;;7.18;100.00;99487.94;5231103;28;20197;-78
2022/11/23 03:11:16;;;;;;;0.00;0.00;;;;;;;7.17;100.00;99490.69;5231542;28;20030;-79
2022/11/23 03:13:47;;;;;;;0.00;0.00;;;;;;;7.16;100.00;99481.91;5230382;28;20036;-78
2022/11/23 03:16:19;;;;;;;0.00;0.00;;;;;;;7.16;100.00;99492.53;5231828;28;20395;-79
2022/11/23 03:18:50;;;;;;;0.00;0.00;;;;;;;7.16;100.00;99481.91;5236673;28;20037;-78
2022/11/23 03:21:21;;;;;;;0.00;0.00;;;;;;;7.16;100.00;99487.22;5231016;28;20079;-78
2022/11/23 03:23:54;;;;;;;0.10;0.00;;;;;;;7.15;100.00;99487.34;5233035;28;20041;-78
2022/11/23 03:26:25;;;;;;;0.00;0.00;;;;;;;7.15;100.00;99488.19;5229708;28;20443;-79
2022/11/23 03:28:56;;;;;;;0.00;0.00;;;;;;;7.14;100.00;99489.16;5235408;28;20040;-78
2022/11/23 03:31:28;;;;;;;0.22;0.10;;;;;;;7.13;100.00;99484.81;5224834;28;20116;-78
2022/11/23 03:33:59;;;;;;;0.00;0.00;;;;;;;7.11;100.00;99485.91;5226210;28;20046;-78
2022/11/23 03:36:30;;;;;;;0.00;0.00;;;;;;;7.09;100.00;99487.88;5231283;28;20092;-78
2022/11/23 03:39:01;;;;;;;0.00;0.00;;;;;;;7.07;100.00;99480.84;5228757;28;20033;-78
2022/11/23 03:41:33;;;;;;;0.00;0.00;;;;;;;7.09;100.00;99488.69;5231730;28;20037;-78
2022/11/23 03:44:04;;;;;;;0.00;0.00;;;;;;;7.07;100.00;99485.34;5227041;28;20499;-79
2022/11/23 03:46:35;;;;;;;0.00;0.00;;;;;;;7.05;100.00;99482.81;5229776;28;20506;-78
2022/11/23 03:49:06;;;;;;;0.00;0.00;;;;;;;7.05;100.00;99485.47;5230151;28;20056;-78
2022/11/23 03:51:38;;;;;;;0.00;0.00;;;;;;;7.05;100.00;99487.28;5228798;28;20392;-78
2022/11/23 03:54:09;;;;;;;0.00;0.00;;;;;;;7.06;100.00;99483.66;5225027;28;20532;-78
2022/11/23 03:56:40;;;;;;;0.00;0.00;;;;;;;7.05;100.00;99479.31;5225418;28;20121;-78
2022/11/23 03:59:12;;;;;;;0.00;0.00;;;;;;;7.04;100.00;99475.84;5230456;28;20048;-78
2022/11/23 04:01:43;;;;;;;0.00;0.00;;;;;;;7.04;100.00;99483.78;5228751;28;20152;-78
2022/11/23 04:04:14;;;;;;;0.00;0.00;;;;;;;7.04;100.00;99493.56;5229407;28;20037;-78
2022/11/23 04:06:45;;;;;;;0.00;0.00;;;;;;;7.05;100.00;99498.72;5229775;28;20527;-78
2022/11/23 04:09:17;;;;;;;0.00;0.00;;;;;;;7.05;100.00;99495.22;5230251;28;20116;-78
2022/11/23 04:11:48;;;;;;;0.00;0.00;;;;;;;7.02;100.00;99487.56;5228024;28;20494;-78
2022/11/23 04:14:19;;;;;;;0.00;0.00;;;;;;;7.03;100.00;99497.16;5226994;28;20147;-78
2022/11/23 04:16:50;;;;;;;0.00;0.00;;;;;;;7.01;100.00;99494.63;5227723;28;20479;-78
2022/11/23 04:19:22;;;;;;;0.00;0.00;;;;;;;7.02;100.00;99496.34;5228185;28;20670;-78
2022/11/23 04:21:53;;;;;;;0.00;0.00;;;;;;;7.00;100.00;99490.31;5228221;28;20084;-78
2022/11/23 04:24:24;;;;;;;0.00;0.00;;;;;;;7.03;100.00;99494.53;5230386;28;20045;-78
2022/11/23 04:26:56;;;;;;;0.00;0.00;;;;;;;7.03;100.00;99492.69;5228761;28;20084;-78
2022/11/23 04:29:27;;;;;;;0.00;0.00;;;;;;;7.04;100.00;99494.41;5228828;28;20068;-78
2022/11/23 04:31:58;;;;;;;0.00;0.00;;;;;;;7.03;100.00;99481.25;5228117;28;20087;-78
2022/11/23 04:34:29;;;;;;;0.00;0.00;;;;;;;7.01;100.00;99481.38;5229090;28;20040;-78
2022/11/23 04:37:01;;;;;;;0.00;0.00;;;;;;;7.02;100.00;99492.84;5227578;28;20043;-78
2022/11/23 04:39:32;;;;;;;0.00;0.00;;;;;;;7.00;100.00;99476.19;5227746;28;20067;-78
2022/11/23 04:42:03;;;;;;;0.00;0.00;;;;;;;6.99;100.00;99482.50;5228947;28;20055;-78
2022/11/23 04:44:35;;;;;;;0.00;0.00;;;;;;;6.96;100.00;99491.56;5225979;28;20055;-78
2022/11/23 04:47:06;;;;;;;0.00;0.00;;;;;;;6.94;100.00;99496.16;5231000;28;20029;-78
2022/11/23 04:49:37;;;;;;;0.00;0.00;;;;;;;6.93;100.00;99488.31;5234198;28;20060;-78
2022/11/23 04:52:09;;;;;;;0.00;0.00;;;;;;;6.91;100.00;99492.91;5231239;28;20028;-78
2022/11/23 04:54:40;;;;;;;0.00;0.00;;;;;;;6.89;100.00;99498.31;5230823;28;20055;-78
2022/11/23 04:57:11;;;;;;;0.00;0.00;;;;;;;6.86;100.00;99503.88;5228633;28;20034;-78
2022/11/23 04:59:42;;;;;;;0.00;0.00;;;;;;;6.83;100.00;99490.88;5230593;28;20037;-77
2022/11/23 05:02:14;;;;;;;0.00;0.00;;;;;;;6.79;100.00;99489.47;5227478;28;20064;-78
2022/11/23 05:04:45;;;;;;;0.00;0.00;;;;;;;6.75;100.00;99488.88;5228906;28;20029;-78
2022/11/23 05:07:19;;;;;;;0.00;0.00;;;;;;;6.72;100.00;99502.38;5231118;28;20056;-78
2022/11/23 05:09:51;;;;;;;;;;;;;;;6.71;100.00;99494.53;5228345;28;20730;-78
2022/11/23 05:12:22;;;;;;;0.00;0.00;;;;;;;6.66;100.00;99477.19;5225846;28;20167;-78
2022/11/23 05:14:53;;;;;;;0.08;0.00;;;;;;;6.62;100.00;99480.25;5226653;28;20775;-78
2022/11/23 05:17:24;;;;;;;0.00;0.00;;;;;;;6.57;100.00;99482.41;5226840;28;20043;-77
2022/11/23 05:19:56;;;;;;;0.00;0.00;;;;;;;6.55;100.00;99473.75;5228054;28;20029;-77
2022/11/23 05:22:27;;;;;;;0.00;0.00;;;;;;;6.53;100.00;99479.16;5225411;28;20144;-77
2022/11/23 05:24:58;;;;;;;0.00;0.00;;;;;;;6.53;100.00;99486.28;5229418;28;20034;-77
2022/11/23 05:27:30;;;;;;;0.00;0.00;;;;;;;6.54;100.00;99482.66;5224570;28;20025;-77
2022/11/23 05:30:01;;;;;;;0.08;0.00;;;;;;;6.53;100.00;99483.63;5226441;28;20122;-77
2022/11/23 05:32:32;;;;;;;0.00;0.00;;;;;;;6.52;100.00;99482.81;5225121;28;20415;-77
2022/11/23 05:35:05;;;;;;;0.10;0.00;;;;;;;6.53;100.00;99483.63;5227030;28;20052;-77
2022/11/23 05:37:37;;;;;;;0.00;0.00;;;;;;;6.52;100.00;99487.25;5229079;28;20034;-77
2022/11/23 05:40:09;;;;;;;0.00;0.00;;;;;;;6.50;100.00;99482.09;5227277;28;20112;-77
2022/11/23 05:42:41;;;;;;;0.00;0.00;;;;;;;6.50;100.00;99483.88;5228583;28;20480;-77
2022/11/23 05:45:12;;;;;;;0.00;0.00;;;;;;;6.48;100.00;99490.16;5225942;28;20053;-77
2022/11/23 05:47:52;;;;;;;0.00;0.00;;;;;;;6.47;100.00;99499.06;5229992;28;20110;-77
2022/11/23 05:50:26;;;;;;;0.00;0.00;;;;;;;6.45;100.00;99502.81;5242813;28;20056;-77
2022/11/23 05:52:58;;;;;;;0.00;0.00;;;;;;;6.43;100.00;99502.94;5225649;28;20093;-77
2022/11/23 05:55:30;;;;;;;0.00;0.00;;;;;;;6.43;100.00;99499.44;5225889;28;20030;-77
2022/11/23 05:58:01;;;;;;;0.00;0.00;;;;;;;6.43;100.00;99491.50;5227384;28;20061;-77
2022/11/23 06:00:32;;;;;;;0.10;0.00;;;;;;;6.41;100.00;99496.91;5229429;28;20040;-77
2022/11/23 06:03:04;;;;;;;0.00;0.00;;;;;;;6.39;100.00;99498.84;5228823;28;20570;-77
2022/11/23 06:05:35;;;;;;;0.00;0.00;;;;;;;6.38;100.00;99498.97;5222403;28;20060;-77
2022/11/23 06:08:06;;;;;;;0.00;0.00;;;;;;;6.36;100.00;99501.72;5225006;28;20040;-77
2022/11/23 06:10:37;;;;;;;0.00;0.00;;;;;;;6.36;100.00;99498.25;5225939;28;20029;-77
2022/11/23 06:13:09;;;;;;;0.00;0.00;;;;;;;6.35;100.00;99500.06;5231386;28;20034;-77
2022/11/23 06:15:40;;;;;;;0.00;0.00;;;;;;;6.36;100.00;99499.09;5230479;28;20100;-77
2022/11/23 06:18:11;;;;;;;0.30;0.00;;;;;;;6.36;100.00;99499.09;5230074;28;20480;-77
2022/11/23 06:20:43;;;;;;;0.10;0.00;;;;;;;6.37;100.00;99500.78;5245085;28;20040;-77
2022/11/23 06:23:14;;;;;;;0.45;0.00;;;;;;;6.39;100.00;99503.31;5231004;28;20029;-77
2022/11/23 06:25:45;;;;;;;0.00;0.00;;;;;;;6.40;100.00;99504.97;5232912;28;20246;-78
2022/11/23 06:28:16;;;;;;;0.00;0.00;;;;;;;6.39;100.00;99504.16;5230574;28;20036;-78
2022/11/23 06:30:48;;;;;;;0.00;0.00;;;;;;;6.39;100.00;99500.66;5229591;28;20029;-76
2022/11/23 06:33:19;;;;;;;0.00;0.00;;;;;;;6.39;100.00;99521.84;5229812;28;20030;-77
2022/11/23 06:35:53;;;;;;;0.00;0.00;;;;;;;6.39;100.00;99517.38;5230887;28;20025;-77
2022/11/23 06:38:25;;;;;;;0.10;0.00;;;;;;;6.40;100.00;99507.63;5230495;28;20036;-77
2022/11/23 06:40:58;;;;;;;0.00;0.00;;;;;;;6.42;100.00;99513.63;5224412;28;20026;-77
2022/11/23 06:43:30;;;;;;;0.00;0.00;;;;;;;6.42;100.00;99514.50;5231114;28;20052;-77
2022/11/23 06:46:05;;;;;;;0.00;0.00;;;;;;;6.42;100.00;99517.16;5227422;28;20022;-77
2022/11/23 06:48:36;;;;;;;0.00;0.00;;;;;;;6.44;100.00;99512.56;5225023;28;20109;-77
2022/11/23 06:51:08;;;;;;;0.00;0.00;;;;;;;6.45;100.00;99508.94;5229801;28;20681;-77
2022/11/23 06:53:40;;;;;;;0.00;0.00;;;;;;;6.45;100.00;99518.72;5237303;28;20050;-77
2022/11/23 06:56:11;;;;;;;0.00;0.00;;;;;;;6.45;100.00;99527.50;5236199;28;20022;-77
2022/11/23 06:58:42;;;;;;;0.00;0.00;;;;;;;6.44;100.00;99522.31;5235884;28;20036;-76
2022/11/23 07:01:14;;;;;;;0.00;0.00;;;;;;;6.44;100.00;99533.78;5232362;28;20428;-77
2022/11/23 07:03:45;;;;;;;0.00;0.00;;;;;;;6.43;100.00;99531.25;5230986;28;20391;-77
2022/11/23 07:06:16;;;;;;;0.00;0.00;;;;;;;6.41;100.00;99536.66;5233494;28;20034;-77
2022/11/23 07:08:47;;;;;;;0.10;0.00;;;;;;;6.41;100.00;99541.13;5227836;28;20385;-78
2022/11/23 07:11:19;;;;;;;0.08;0.00;;;;;;;6.39;100.00;99538.59;5228892;28;20025;-77
2022/11/23 07:13:50;;;;;;;0.00;0.00;;;;;;;6.38;100.00;99551.94;5227437;28;20044;-77
2022/11/23 07:16:21;;;;;;;0.20;0.00;;;;;;;6.36;100.00;99546.75;5227344;28;20040;-77
2022/11/23 07:18:52;;;;;;;0.10;0.00;;;;;;;6.34;100.00;99554.00;5234644;28;20052;-77
2022/11/23 07:21:24;;;;;;;0.00;0.00;;;;;;;6.33;100.00;99556.75;5236757;28;20256;-77
2022/11/23 07:23:55;;;;;;;0.00;0.00;;;;;;;6.30;100.00;99560.50;5235260;28;20121;-77
2022/11/23 07:26:26;;;;;;;0.10;0.00;;;;;;;6.27;100.00;99569.53;5238607;28;20025;-77
2022/11/23 07:28:58;;;;;;;0.00;0.00;;;;;;;6.25;100.00;99562.66;5234816;28;20029;-77
2022/11/23 07:31:29;;;;;;;0.00;0.00;;;;;;;6.21;100.00;99564.75;5237332;28;20116;-77
2022/11/23 07:34:00;;;;;;;1.38;0.00;;;;;;;6.17;100.00;99560.63;5235558;28;20036;-77
2022/11/23 07:36:32;;;;;;;0.00;0.00;;;;;;;6.15;100.00;99574.97;5236181;28;20041;-77
2022/11/23 07:39:03;;;;;;;0.00;0.00;;;;;;;6.11;100.00;99584.94;5231354;28;20033;-77
2022/11/23 07:41:34;;;;;;;0.00;0.00;;;;;;;6.06;100.00;99580.03;5235210;28;20090;-77
2022/11/23 07:44:06;;;;;;;0.00;0.00;;;;;;;6.04;100.00;99581.94;5235051;28;20464;-77
2022/11/23 07:46:37;;;;;;;0.00;0.00;;;;;;;5.99;100.00;99575.31;5235807;28;20026;-69
2022/11/23 07:49:08;;;;;;;0.10;0.00;;;;;;;5.97;100.00;99591.31;5234874;28;20037;-69
2022/11/23 07:51:39;;;;;;;0.00;0.00;;;;;;;5.95;100.00;99587.09;5240727;28;20115;-69
2022/11/23 07:54:11;;;;;;;0.00;0.00;;;;;;;5.90;100.00;99600.66;5238388;28;20045;-69
2022/11/23 07:56:42;;;;;;;0.00;0.00;;;;;;;5.88;100.00;99592.00;5224881;28;20033;-69
2022/11/23 07:59:13;;;;;;;0.00;0.00;;;;;;;5.85;100.00;99598.38;5234469;28;20103;-69
2022/11/23 08:01:44;;;;;;;0.00;0.00;;;;;;;5.84;100.00;99595.84;5228030;28;20037;-69
2022/11/23 08:04:16;;;;;;;0.00;0.00;;;;;;;5.81;100.00;99588.13;5236089;28;20041;-69
2022/11/23 08:06:47;;;;;;;0.10;0.00;;;;;;;5.79;100.00;99596.22;5229812;28;20025;-69
2022/11/23 08:09:18;;;;;;;0.00;0.00;;;;;;;5.77;100.00;99599.91;5239348;28;20040;-69
2022/11/23 08:11:49;;;;;;;0.08;0.00;;;;;;;5.75;100.00;99594.72;5233591;28;20033;-69
2022/11/23 08:14:22;;;;;;;0.00;0.00;;;;;;;5.73;100.00;99594.00;5235657;28;20033;-70
2022/11/23 08:16:53;;;;;;;0.00;0.00;;;;;;;5.72;100.00;99596.81;5237202;28;20029;-70
2022/11/23 08:19:25;;;;;;;0.00;0.00;;;;;;;5.71;100.00;99595.94;5234881;28;20049;-71
2022/11/23 08:21:56;;;;;;;0.03;0.00;;;;;;;5.72;100.00;99591.50;5232721;28;20380;-69
2022/11/23 08:24:27;;;;;;;0.00;0.00;;;;;;;5.72;100.00;99594.16;5236602;28;20482;-70
2022/11/23 08:26:58;;;;;;;0.00;0.00;;;;;;;5.71;100.00;99595.94;5233428;28;20060;-70
2022/11/23 08:29:30;;;;;;;0.00;0.00;;;;;;;5.72;100.00;99599.44;5235172;28;20047;-70
2022/11/23 08:32:01;;;;;;;0.00;0.00;;;;;;;5.70;100.00;99600.38;5229081;28;20036;-70
2022/11/23 08:34:32;;;;;;;0.10;0.00;;;;;;;5.70;100.00;99595.09;5231674;28;20033;-70
2022/11/23 08:37:03;;;;;;;0.00;0.00;;;;;;;5.71;100.00;99606.53;5235467;28;20029;-70
2022/11/23 08:39:35;;;;;;;0.05;0.00;;;;;;;5.72;100.00;99604.75;5228915;28;20048;-70
2022/11/23 08:42:06;;;;;;;0.17;0.00;;;;;;;5.72;100.00;99605.56;5228832;28;20026;-70
2022/11/23 08:44:37;;;;;;;0.00;0.00;;;;;;;5.73;100.00;99615.19;5238178;28;20136;-70
2022/11/23 08:47:08;;;;;;;0.00;0.00;;;;;;;5.73;100.00;99604.59;5231592;28;20030;-70
2022/11/23 08:49:40;;;;;;;0.00;0.00;;;;;;;5.74;100.00;99600.16;5230794;28;20442;-70
2022/11/23 08:52:11;;;;;;;0.10;0.00;;;;;;;5.74;100.00;99606.28;5229372;28;20033;-70
2022/11/23 08:54:42;;;;;;;0.10;0.00;;;;;;;5.75;100.00;99601.84;5229112;28;20219;-70
2022/11/23 08:57:14;;;;;;;0.00;0.00;;;;;;;5.76;100.00;99606.19;5230651;28;20416;-70
2022/11/23 08:59:45;;;;;;;0.20;0.03;;;;;;;5.79;100.00;99600.63;5230999;28;20030;-70
2022/11/23 09:02:16;;;;;;;0.65;0.00;;;;;;;5.80;100.00;99594.41;5233794;28;20487;-70
2022/11/23 09:04:47;;;;;;;0.00;0.00;;;;;;;5.80;100.00;99597.88;5233564;28;20025;-70
2022/11/23 09:07:19;;;;;;;0.10;0.00;;;;;;;5.82;100.00;99597.78;5233322;28;20030;-70
2022/11/23 09:09:50;;;;;;;0.00;0.00;;;;;;;5.85;100.00;99595.72;5230464;28;20123;-70
2022/11/23 09:12:21;;;;;;;1.08;0.00;;;;;;;5.87;100.00;99595.63;5229907;28;20060;-70
2022/11/23 09:14:52;;;;;;;0.10;0.00;;;;;;;5.88;100.00;99590.19;5224571;28;20044;-70
2022/11/23 09:17:24;;;;;;;0.00;0.00;;;;;;;5.92;100.00;99603.19;5228330;28;21746;-70
2022/11/23 09:19:55;;;;;;;0.00;0.00;;;;;;;5.93;100.00;99594.31;5230631;28;20029;-69
2022/11/23 09:22:26;;;;;;;0.00;0.00;;;;;;;5.95;100.00;99587.94;5232984;28;20031;-70
2022/11/23 09:24:58;;;;;;;0.00;0.00;;;;;;;5.98;100.00;99586.88;5232100;28;20029;-70
2022/11/23 09:27:29;;;;;;;0.00;0.00;;;;;;;6.00;100.00;99588.44;5235119;28;20026;-70
2022/11/23 09:30:00;;;;;;;0.00;0.00;;;;;;;6.02;100.00;99583.00;5231473;28;20088;-70
2022/11/23 09:32:32;;;;;;;0.00;0.00;;;;;;;6.03;100.00;99584.72;5232447;28;20030;-70
2022/11/23 09:35:03;;;;;;;0.00;0.00;;;;;;;6.05;100.00;99578.31;5231675;28;20049;-70
2022/11/23 09:37:35;;;;;;;0.10;0.00;;;;;;;6.06;100.00;99574.72;5249617;28;20048;-70
2022/11/23 09:40:11;;;;;;;0.75;0.03;;;;;;;6.07;100.00;99581.69;5229815;28;20091;-70
2022/11/23 09:42:55;;;;;;;0.00;0.00;;;;;;;6.09;100.00;99569.16;5234684;28;20037;-69
2022/11/23 09:45:35;;;;;;;0.10;0.00;;;;;;;6.11;100.00;99568.22;5220267;28;20459;-69
2022/11/23 09:48:30;;;;;;;0.05;0.00;;;;;;;6.13;100.00;99566.28;5227523;28;20038;-70
2022/11/23 09:51:17;;;;;;;0.10;0.00;;;;;;;6.15;100.00;99567.84;5232983;28;20487;-70
2022/11/23 09:53:57;;;;;;;0.65;0.10;;;;;;;6.15;100.00;99557.25;5225095;28;20098;-70
2022/11/23 09:56:32;;;;;;;0.45;0.00;;;;;;;6.17;100.00;99546.53;5221381;28;20046;-70
2022/11/23 09:59:26;;;;;;;0.00;0.00;;;;;;;6.18;100.00;99550.91;5232035;28;20029;-70
2022/11/23 10:01:59;;;;;;;0.00;0.00;;;;;;;6.19;100.00;99544.63;5224826;28;20655;-70
2022/11/23 10:04:34;;;;;;;0.00;0.00;;;;;;;6.22;100.00;99534.63;5233903;28;20049;-70
2022/11/23 10:07:25;;;;;;;0.00;0.00;;;;;;;6.23;100.00;99536.31;5226182;28;20395;-70
2022/11/23 10:10:10;;;;;;;0.13;0.00;;;;;;;6.26;100.00;99532.59;5231177;28;20387;-70
2022/11/23 10:13:09;;;;;;;0.22;0.00;;;;;;;6.27;100.00;99528.94;5231199;28;20035;-70
2022/11/23 10:16:12;;;;;;;0.43;0.10;;;;;;;6.32;100.00;99526.78;5231961;28;20395;-70
2022/11/23 10:19:02;;;;;;;0.10;0.00;;;;;;;6.35;100.00;99526.56;5223958;28;20049;-70
2022/11/23 10:21:45;;;;;;;0.00;0.00;;;;;;;6.40;100.00;99526.16;5230496;28;20037;-70
2022/11/23 10:24:20;;;;;;;0.10;0.00;;;;;;;6.42;100.00;99529.53;5227231;28;20104;-70
2022/11/23 10:26:51;;;;;;;0.00;0.00;;;;;;;6.43;100.00;99521.47;5225819;28;20563;-70
2022/11/23 10:29:29;;;;;;;1.15;0.03;;;;;;;6.45;100.00;99516.06;5232840;28;20037;-70
2022/11/23 10:32:03;;;;;;;0.20;0.03;;;;;;;6.49;100.00;99514.84;5231483;28;20087;-70
2022/11/23 10:34:57;;;;;;;0.00;0.00;;;;;;;6.53;100.00;99518.09;5233038;28;20456;-70
2022/11/23 10:37:28;;;;;;;0.00;0.00;;;;;;;6.57;100.00;99519.50;5228443;28;20112;-69
2022/11/23 10:39:59;;;;;;;0.10;0.00;;;;;;;6.59;100.00;99514.94;5225402;28;20031;-70
2022/11/23 10:42:43;;;;;;;0.00;0.00;;;;;;;6.63;100.00;99509.25;5234094;28;20017;-70
2022/11/23 10:45:20;;;;;;;0.00;0.00;;;;;;;6.66;100.00;99513.47;5229936;28;20511;-70
2022/11/23 10:47:54;;;;;;;0.32;0.00;;;;;;;6.70;100.00;99514.06;5228217;28;20026;-70
2022/11/23 10:50:33;;;;;;;0.05;0.00;;;;;;;6.72;100.00;99518.25;5231809;28;20026;-70
2022/11/23 10:53:04;;;;;;;0.17;0.00;;;;;;;6.76;100.00;99508.25;5230406;28;20160;-70
2022/11/23 10:55:53;;;;;;;0.10;0.00;;;;;;;6.81;100.00;99511.38;5229120;28;20041;-69
2022/11/23 10:58:30;;;;;;;0.00;0.00;;;;;;;6.87;100.00;99509.06;5232476;28;20065;-70
2022/11/23 11:01:05;;;;;;;0.10;0.00;;;;;;;6.96;100.00;99506.59;5226125;28;20550;-69
2022/11/23 11:03:37;;;;;;;0.00;0.00;;;;;;;7.04;100.00;99490.91;5229647;28;20387;-69
2022/11/23 11:06:08;;;;;;;0.08;0.00;;;;;;;7.07;100.00;99485.34;5225866;28;20029;-68
2022/11/23 11:08:50;;;;;;;0.00;0.00;;;;;;;7.10;100.00;99471.00;5225719;28;20102;-69
2022/11/23 11:11:30;;;;;;;0.10;0.00;;;;;;;7.11;100.00;99478.78;5228997;28;20095;-69
2022/11/23 11:14:04;;;;;;;0.00;0.00;;;;;;;7.15;100.00;99471.44;5230930;28;20044;-69
2022/11/23 11:16:36;;;;;;;0.00;0.00;;;;;;;7.15;100.00;99476.72;5228610;28;20471;-69
2022/11/23 11:19:40;;;;;;;0.08;0.00;;;;;;;7.19;100.00;99486.97;5228069;28;20041;-69
2022/11/23 11:22:28;;;;;;;0.10;0.00;;;;;;;7.23;100.00;99476.94;5233541;28;20124;-69
2022/11/23 11:25:02;;;;;;;0.10;0.00;;;;;;;7.26;100.00;99464.25;5231757;28;20021;-69
2022/11/23 11:27:33;;;;;;;0.10;0.00;;;;;;;7.32;100.00;99465.53;5230966;28;20037;-69
2022/11/23 11:30:19;;;;;;;0.10;0.00;;;;;;;7.37;100.00;99466.00;5229485;28;20030;-69
2022/11/23 11:33:09;;;;;;;0.00;0.00;;;;;;;7.41;100.00;99451.47;5225713;28;20032;-69
2022/11/23 11:35:44;;;;;;;0.52;0.05;;;;;;;7.45;100.00;99452.91;5228816;28;20079;-69
2022/11/23 11:38:23;;;;;;;0.22;0.00;;;;;;;7.51;100.00;99448.88;5226267;28;20802;-69
2022/11/23 11:40:57;;;;;;;0.73;0.05;;;;;;;7.51;100.00;99438.25;5229332;28;20052;-69
2022/11/23 11:43:33;;;;;;;1.55;0.00;;;;;;;7.56;100.00;99443.19;5240494;28;20026;-68
2022/11/23 11:46:12;;;;;;;0.35;0.00;;;;;;;7.58;100.00;99442.06;5232772;28;20036;-69
2022/11/23 11:48:55;;;;;;;0.20;0.00;;;;;;;7.60;100.00;99424.19;5233578;28;20157;-68
2022/11/23 11:51:33;;;;;;;0.00;0.00;;;;;;;7.61;100.00;99417.94;5234785;28;20041;-69
2022/11/23 11:54:13;;;;;;;0.20;0.00;;;;;;;7.61;100.00;99417.94;5233713;28;20049;-69
2022/11/23 11:56:59;;;;;;;0.08;0.00;;;;;;;7.62;100.00;99414.28;5227008;28;20036;-69
2022/11/23 11:59:41;;;;;;;0.05;0.00;;;;;;;7.64;100.00;99416.81;5231272;28;20032;-69
2022/11/23 12:02:34;;;;;;;0.10;0.10;;;;;;;7.68;100.00;99409.44;5231293;28;20025;-69